sensor_id;sensor_type;location;lat;lon;timestamp;pressure;altitude;pressure_sealevel;temperature;humidity
28606;BME280;46498;49.968;7.754;2023-03-21T00:02:23;97267.00;;;7.56;97.39
28606;BME280;46498;49.968;7.754;2023-03-21T00:07:24;97262.00;;;7.58;98.33
28606;BME280;46498;49.968;7.754;2023-03-21T00:12:25;97255.00;;;7.50;99.69
28606;BME280;46498;49.968;7.754;2023-03-21T00:17:26;97249.00;;;7.34;100.00
28606;BME280;46498;49.968;7.754;2023-03-21T00:22:35;97244.00;;;7.24;100.00
28606;BME280;46498;49.968;7.754;2023-03-21T00:27:36;97231.00;;;7.30;100.00
28606;BME280;46498;49.968;7.754;2023-03-21T00:32:57;97246.00;;;7.45;98.24
28606;BME280;46498;49.968;7.754;2023-03-21T00:38:04;97234.00;;;7.36;99.50
28606;BME280;46498;49.968;7.754;2023-03-21T00:43:07;97238.00;;;7.45;99.59
28606;BME280;46498;49.968;7.754;2023-03-21T00:48:07;97238.00;;;7.58;99.27
28606;BME280;46498;49.968;7.754;2023-03-21T00:53:09;97234.00;;;7.44;98.46
28606;BME280;46498;49.968;7.754;2023-03-21T00:58:11;97230.00;;;7.30;100.00
28606;BME280;46498;49.968;7.754;2023-03-21T01:03:13;97214.00;;;7.32;100.00
28606;BME280;46498;49.968;7.754;2023-03-21T01:08:26;97213.00;;;7.48;100.00
28606;BME280;46498;49.968;7.754;2023-03-21T01:13:39;97211.00;;;7.51;100.00
28606;BME280;46498;49.968;7.754;2023-03-21T01:18:57;97206.00;;;7.50;100.00
28606;BME280;46498;49.968;7.754;2023-03-21T01:23:58;97205.00;;;7.49;100.00
28606;BME280;46498;49.968;7.754;2023-03-21T01:28:59;97203.00;;;7.34;100.00
28606;BME280;46498;49.968;7.754;2023-03-21T01:34:00;97206.00;;;7.29;100.00
28606;BME280;46498;49.968;7.754;2023-03-21T01:39:03;97201.00;;;7.17;100.00
28606;BME280;46498;49.968;7.754;2023-03-21T01:44:06;97196.00;;;7.16;100.00
28606;BME280;46498;49.968;7.754;2023-03-21T01:49:51;97193.00;;;7.14;100.00
28606;BME280;46498;49.968;7.754;2023-03-21T01:54:59;97181.00;;;7.20;100.00
28606;BME280;46498;49.968;7.754;2023-03-21T02:00:09;97179.00;;;7.26;100.00
28606;BME280;46498;49.968;7.754;2023-03-21T02:05:43;97181.00;;;7.29;100.00
28606;BME280;46498;49.968;7.754;2023-03-21T02:10:50;97176.00;;;7.31;100.00
28606;BME280;46498;49.968;7.754;2023-03-21T02:16:11;97172.00;;;7.30;100.00
28606;BME280;46498;49.968;7.754;2023-03-21T02:21:54;97174.00;;;7.44;100.00
28606;BME280;46498;49.968;7.754;2023-03-21T02:27:13;97161.00;;;7.53;100.00
28606;BME280;46498;49.968;7.754;2023-03-21T02:32:30;97153.00;;;7.47;100.00
28606;BME280;46498;49.968;7.754;2023-03-21T02:37:44;97151.00;;;7.41;100.00
28606;BME280;46498;49.968;7.754;2023-03-21T02:43:24;97143.00;;;7.38;100.00
28606;BME280;46498;49.968;7.754;2023-03-21T02:48:36;97135.00;;;7.39;100.00
28606;BME280;46498;49.968;7.754;2023-03-21T02:54:04;97131.00;;;7.45;100.00
28606;BME280;46498;49.968;7.754;2023-03-21T02:59:48;97129.00;;;7.46;100.00
28606;BME280;46498;49.968;7.754;2023-03-21T03:05:00;97128.00;;;7.35;100.00
28606;BME280;46498;49.968;7.754;2023-03-21T03:10:55;97125.00;;;7.36;100.00
28606;BME280;46498;49.968;7.754;2023-03-21T03:19:09;97122.00;;;7.43;100.00
28606;BME280;46498;49.968;7.754;2023-03-21T03:24:30;97125.00;;;7.31;100.00
28606;BME280;46498;49.968;7.754;2023-03-21T03:29:36;97124.00;;;7.27;100.00
28606;BME280;46498;49.968;7.754;2023-03-21T03:34:42;97123.00;;;7.25;100.00
28606;BME280;46498;49.968;7.754;2023-03-21T03:40:24;97123.00;;;7.16;100.00
28606;BME280;46498;49.968;7.754;2023-03-21T03:45:43;97125.00;;;7.05;100.00
28606;BME280;46498;49.968;7.754;2023-03-21T03:50:53;97115.00;;;6.99;100.00
28606;BME280;46498;49.968;7.754;2023-03-21T03:56:03;97122.00;;;7.01;100.00
28606;BME280;46498;49.968;7.754;2023-03-21T04:01:07;97116.00;;;6.99;100.00
28606;BME280;46498;49.968;7.754;2023-03-21T04:06:09;97124.00;;;6.97;100.00
28606;BME280;46498;49.968;7.754;2023-03-21T04:11:13;97123.00;;;6.93;100.00
28606;BME280;46498;49.968;7.754;2023-03-21T04:16:21;97128.00;;;6.88;100.00
28606;BME280;46498;49.968;7.754;2023-03-21T04:21:23;97133.00;;;6.77;100.00
28606;BME280;46498;49.968;7.754;2023-03-21T04:26:24;97127.00;;;6.91;100.00
28606;BME280;46498;49.968;7.754;2023-03-21T04:31:48;97120.00;;;6.70;100.00
28606;BME280;46498;49.968;7.754;2023-03-21T04:36:50;97120.00;;;6.79;100.00
28606;BME280;46498;49.968;7.754;2023-03-21T04:41:54;97117.00;;;6.72;100.00
28606;BME280;46498;49.968;7.754;2023-03-21T04:46:55;97108.00;;;6.84;100.00
28606;BME280;46498;49.968;7.754;2023-03-21T04:51:56;97113.00;;;6.92;100.00
28606;BME280;46498;49.968;7.754;2023-03-21T04:56:57;97105.00;;;7.03;100.00
28606;BME280;46498;49.968;7.754;2023-03-21T05:02:00;97110.00;;;7.08;100.00
28606;BME280;46498;49.968;7.754;2023-03-21T05:07:02;97107.00;;;7.04;100.00
28606;BME280;46498;49.968;7.754;2023-03-21T05:12:03;97101.00;;;7.03;100.00
28606;BME280;46498;49.968;7.754;2023-03-21T05:17:05;97101.00;;;7.14;100.00
28606;BME280;46498;49.968;7.754;2023-03-21T05:22:09;97104.00;;;7.13;100.00
28606;BME280;46498;49.968;7.754;2023-03-21T05:27:11;97100.00;;;7.13;100.00
28606;BME280;46498;49.968;7.754;2023-03-21T05:32:17;97104.00;;;7.14;100.00
28606;BME280;46498;49.968;7.754;2023-03-21T05:37:18;97102.00;;;7.13;100.00
28606;BME280;46498;49.968;7.754;2023-03-21T05:42:22;97100.00;;;7.17;100.00
28606;BME280;46498;49.968;7.754;2023-03-21T05:47:24;97098.00;;;7.05;100.00
28606;BME280;46498;49.968;7.754;2023-03-21T05:52:26;97107.00;;;6.83;100.00
28606;BME280;46498;49.968;7.754;2023-03-21T05:57:28;97107.00;;;6.61;100.00
28606;BME280;46498;49.968;7.754;2023-03-21T06:02:35;97108.00;;;6.66;100.00
28606;BME280;46498;49.968;7.754;2023-03-21T06:07:38;97106.00;;;6.83;100.00
28606;BME280;46498;49.968;7.754;2023-03-21T06:12:42;97097.00;;;6.99;100.00
28606;BME280;46498;49.968;7.754;2023-03-21T06:17:57;97110.00;;;7.15;100.00
28606;BME280;46498;49.968;7.754;2023-03-21T06:22:59;97116.00;;;7.24;100.00
28606;BME280;46498;49.968;7.754;2023-03-21T06:28:00;97112.00;;;7.39;100.00
28606;BME280;46498;49.968;7.754;2023-03-21T06:33:02;97113.00;;;7.50;100.00
28606;BME280;46498;49.968;7.754;2023-03-21T06:38:04;97113.00;;;7.62;100.00
28606;BME280;46498;49.968;7.754;2023-03-21T06:43:07;97115.00;;;7.70;100.00
28606;BME280;46498;49.968;7.754;2023-03-21T06:48:08;97118.00;;;7.76;100.00
28606;BME280;46498;49.968;7.754;2023-03-21T06:53:21;97121.00;;;7.84;100.00
28606;BME280;46498;49.968;7.754;2023-03-21T06:58:43;97124.00;;;7.93;100.00
28606;BME280;46498;49.968;7.754;2023-03-21T07:03:51;97121.00;;;8.02;100.00
28606;BME280;46498;49.968;7.754;2023-03-21T07:08:54;97115.00;;;8.03;100.00
28606;BME280;46498;49.968;7.754;2023-03-21T07:13:56;97121.00;;;7.93;100.00
28606;BME280;46498;49.968;7.754;2023-03-21T07:18:58;97121.00;;;7.83;99.62
28606;BME280;46498;49.968;7.754;2023-03-21T07:23:58;97127.00;;;7.80;99.41
28606;BME280;46498;49.968;7.754;2023-03-21T07:29:00;97130.00;;;7.81;98.46
28606;BME280;46498;49.968;7.754;2023-03-21T07:34:01;97124.00;;;7.84;99.29
28606;BME280;46498;49.968;7.754;2023-03-21T07:39:02;97129.00;;;8.00;97.96
28606;BME280;46498;49.968;7.754;2023-03-21T07:44:04;97125.00;;;8.09;97.16
28606;BME280;46498;49.968;7.754;2023-03-21T07:49:06;97133.00;;;8.14;97.09
28606;BME280;46498;49.968;7.754;2023-03-21T07:54:08;97126.00;;;8.20;97.14
28606;BME280;46498;49.968;7.754;2023-03-21T07:59:09;97126.00;;;8.17;96.49
28606;BME280;46498;49.968;7.754;2023-03-21T08:04:10;97129.00;;;8.22;96.71
28606;BME280;46498;49.968;7.754;2023-03-21T08:09:11;97129.00;;;8.26;98.00
28606;BME280;46498;49.968;7.754;2023-03-21T08:14:11;97125.00;;;8.18;96.39
28606;BME280;46498;49.968;7.754;2023-03-21T08:19:12;97131.00;;;8.33;96.28
28606;BME280;46498;49.968;7.754;2023-03-21T08:24:14;97132.00;;;8.44;93.43
28606;BME280;46498;49.968;7.754;2023-03-21T08:29:15;97133.00;;;8.49;90.19
28606;BME280;46498;49.968;7.754;2023-03-21T08:34:16;97128.00;;;8.51;89.53
28606;BME280;46498;49.968;7.754;2023-03-21T08:39:17;97134.00;;;8.52;90.71
28606;BME280;46498;49.968;7.754;2023-03-21T08:44:18;97139.00;;;8.60;90.45
28606;BME280;46498;49.968;7.754;2023-03-21T08:49:21;97140.00;;;8.52;93.73
28606;BME280;46498;49.968;7.754;2023-03-21T08:54:22;97138.00;;;8.65;94.55
28606;BME280;46498;49.968;7.754;2023-03-21T08:59:23;97133.00;;;8.70;95.74
28606;BME280;46498;49.968;7.754;2023-03-21T09:04:24;97133.00;;;8.65;100.00
28606;BME280;46498;49.968;7.754;2023-03-21T09:09:30;97129.00;;;8.59;100.00
28606;BME280;46498;49.968;7.754;2023-03-21T09:14:32;97130.00;;;8.65;100.00
28606;BME280;46498;49.968;7.754;2023-03-21T09:19:34;97130.00;;;8.80;100.00
28606;BME280;46498;49.968;7.754;2023-03-21T09:24:35;97128.00;;;8.79;100.00
28606;BME280;46498;49.968;7.754;2023-03-21T09:29:36;97132.00;;;8.57;99.38
28606;BME280;46498;49.968;7.754;2023-03-21T09:34:38;97129.00;;;8.48;100.00
28606;BME280;46498;49.968;7.754;2023-03-21T09:39:41;97128.00;;;8.23;99.84
28606;BME280;46498;49.968;7.754;2023-03-21T09:51:44;97127.00;;;8.49;100.00
28606;BME280;46498;49.968;7.754;2023-03-21T09:56:46;97131.00;;;8.55;100.00
28606;BME280;46498;49.968;7.754;2023-03-21T10:01:50;97125.00;;;8.65;100.00
28606;BME280;46498;49.968;7.754;2023-03-21T10:06:58;97120.00;;;8.57;100.00
28606;BME280;46498;49.968;7.754;2023-03-21T10:12:03;97127.00;;;8.26;100.00
28606;BME280;46498;49.968;7.754;2023-03-21T10:17:33;97126.00;;;8.30;100.00
28606;BME280;46498;49.968;7.754;2023-03-21T10:22:37;97123.00;;;8.19;100.00
28606;BME280;46498;49.968;7.754;2023-03-21T10:27:38;97125.00;;;8.01;100.00
28606;BME280;46498;49.968;7.754;2023-03-21T10:32:39;97134.00;;;8.08;100.00
28606;BME280;46498;49.968;7.754;2023-03-21T10:37:40;97123.00;;;8.12;100.00
28606;BME280;46498;49.968;7.754;2023-03-21T10:42:42;97125.00;;;8.30;100.00
28606;BME280;46498;49.968;7.754;2023-03-21T10:47:46;97123.00;;;8.43;100.00
28606;BME280;46498;49.968;7.754;2023-03-21T10:52:55;97120.00;;;8.45;100.00
28606;BME280;46498;49.968;7.754;2023-03-21T10:58:06;97112.00;;;8.43;100.00
28606;BME280;46498;49.968;7.754;2023-03-21T11:03:21;97111.00;;;8.77;100.00
28606;BME280;46498;49.968;7.754;2023-03-21T11:08:23;97112.00;;;8.76;100.00
28606;BME280;46498;49.968;7.754;2023-03-21T11:13:47;97106.00;;;8.88;100.00
28606;BME280;46498;49.968;7.754;2023-03-21T11:19:11;97102.00;;;8.96;100.00
28606;BME280;46498;49.968;7.754;2023-03-21T11:24:15;97101.00;;;8.92;100.00
28606;BME280;46498;49.968;7.754;2023-03-21T11:29:33;97109.00;;;8.79;100.00
28606;BME280;46498;49.968;7.754;2023-03-21T11:34:45;97104.00;;;8.76;100.00
28606;BME280;46498;49.968;7.754;2023-03-21T11:39:47;97105.00;;;8.82;100.00
28606;BME280;46498;49.968;7.754;2023-03-21T11:45:01;97095.00;;;8.84;100.00
28606;BME280;46498;49.968;7.754;2023-03-21T11:50:54;97093.00;;;8.85;100.00
28606;BME280;46498;49.968;7.754;2023-03-21T11:57:55;97088.00;;;8.87;100.00
28606;BME280;46498;49.968;7.754;2023-03-21T12:03:29;97073.00;;;8.87;100.00
28606;BME280;46498;49.968;7.754;2023-03-21T12:09:01;97068.00;;;8.71;100.00
28606;BME280;46498;49.968;7.754;2023-03-21T12:21:10;97052.00;;;8.66;100.00
28606;BME280;46498;49.968;7.754;2023-03-21T12:26:27;97042.00;;;8.57;100.00
28606;BME280;46498;49.968;7.754;2023-03-21T12:31:43;97040.00;;;8.60;100.00
28606;BME280;46498;49.968;7.754;2023-03-21T12:43:16;97032.00;;;8.47;100.00
28606;BME280;46498;49.968;7.754;2023-03-21T12:48:47;97019.00;;;8.26;100.00
28606;BME280;46498;49.968;7.754;2023-03-21T12:54:00;97020.00;;;8.20;100.00
28606;BME280;46498;49.968;7.754;2023-03-21T13:02:15;97009.00;;;8.15;100.00
28606;BME280;46498;49.968;7.754;2023-03-21T13:07:19;97004.00;;;8.10;100.00
28606;BME280;46498;49.968;7.754;2023-03-21T13:21:04;96987.00;;;8.25;100.00
28606;BME280;46498;49.968;7.754;2023-03-21T13:26:10;96981.00;;;8.23;100.00
28606;BME280;46498;49.968;7.754;2023-03-21T13:31:28;96981.00;;;8.21;100.00
28606;BME280;46498;49.968;7.754;2023-03-21T13:36:44;96982.00;;;8.22;100.00
28606;BME280;46498;49.968;7.754;2023-03-21T13:41:47;96967.00;;;8.16;100.00
28606;BME280;46498;49.968;7.754;2023-03-21T13:47:00;96958.00;;;8.30;100.00
28606;BME280;46498;49.968;7.754;2023-03-21T13:52:35;96952.00;;;8.22;100.00
28606;BME280;46498;49.968;7.754;2023-03-21T13:57:37;96921.00;;;8.14;100.00
28606;BME280;46498;49.968;7.754;2023-03-21T14:02:50;96928.00;;;8.09;100.00
28606;BME280;46498;49.968;7.754;2023-03-21T14:07:59;96931.00;;;8.28;100.00
28606;BME280;46498;49.968;7.754;2023-03-21T14:13:19;96943.00;;;8.46;100.00
28606;BME280;46498;49.968;7.754;2023-03-21T14:18:23;96939.00;;;8.73;100.00
28606;BME280;46498;49.968;7.754;2023-03-21T14:23:41;96934.00;;;8.68;100.00
28606;BME280;46498;49.968;7.754;2023-03-21T14:28:47;96916.00;;;8.48;100.00
28606;BME280;46498;49.968;7.754;2023-03-21T14:33:51;96917.00;;;8.57;100.00
28606;BME280;46498;49.968;7.754;2023-03-21T14:39:06;96914.00;;;8.59;100.00
28606;BME280;46498;49.968;7.754;2023-03-21T14:44:26;96914.00;;;8.45;100.00
28606;BME280;46498;49.968;7.754;2023-03-21T14:49:38;96888.00;;;8.34;100.00
28606;BME280;46498;49.968;7.754;2023-03-21T14:54:44;96882.00;;;8.49;100.00
28606;BME280;46498;49.968;7.754;2023-03-21T14:59:51;96909.00;;;8.50;100.00
28606;BME280;46498;49.968;7.754;2023-03-21T15:04:57;96917.00;;;8.47;100.00
28606;BME280;46498;49.968;7.754;2023-03-21T15:10:04;96913.00;;;8.58;100.00
28606;BME280;46498;49.968;7.754;2023-03-21T15:15:08;96912.00;;;8.52;100.00
28606;BME280;46498;49.968;7.754;2023-03-21T15:20:14;96901.00;;;8.56;100.00
28606;BME280;46498;49.968;7.754;2023-03-21T15:25:17;96894.00;;;8.46;100.00
28606;BME280;46498;49.968;7.754;2023-03-21T15:30:26;96886.00;;;8.62;100.00
28606;BME280;46498;49.968;7.754;2023-03-21T15:35:34;96886.00;;;8.64;100.00
28606;BME280;46498;49.968;7.754;2023-03-21T15:40:37;96871.00;;;8.68;100.00
28606;BME280;46498;49.968;7.754;2023-03-21T15:45:47;96870.00;;;8.73;100.00
28606;BME280;46498;49.968;7.754;2023-03-21T15:50:56;96876.00;;;8.80;100.00
28606;BME280;46498;49.968;7.754;2023-03-21T15:55:58;96875.00;;;8.90;100.00
28606;BME280;46498;49.968;7.754;2023-03-21T16:01:05;96880.00;;;8.87;100.00
28606;BME280;46498;49.968;7.754;2023-03-21T16:06:21;96891.00;;;8.84;100.00
28606;BME280;46498;49.968;7.754;2023-03-21T16:11:27;96883.00;;;8.77;100.00
28606;BME280;46498;49.968;7.754;2023-03-21T16:16:29;96880.00;;;8.93;100.00
28606;BME280;46498;49.968;7.754;2023-03-21T16:21:31;96872.00;;;8.88;100.00
28606;BME280;46498;49.968;7.754;2023-03-21T16:26:41;96864.00;;;8.79;100.00
28606;BME280;46498;49.968;7.754;2023-03-21T16:31:46;96861.00;;;8.82;100.00
28606;BME280;46498;49.968;7.754;2023-03-21T16:36:48;96856.00;;;8.76;100.00
28606;BME280;46498;49.968;7.754;2023-03-21T16:41:48;96836.00;;;8.66;100.00
28606;BME280;46498;49.968;7.754;2023-03-21T16:46:50;96845.00;;;8.60;100.00
28606;BME280;46498;49.968;7.754;2023-03-21T16:51:52;96833.00;;;8.71;100.00
28606;BME280;46498;49.968;7.754;2023-03-21T16:56:54;96836.00;;;8.72;100.00
28606;BME280;46498;49.968;7.754;2023-03-21T17:01:55;96842.00;;;8.72;100.00
28606;BME280;46498;49.968;7.754;2023-03-21T17:06:56;96845.00;;;8.82;100.00
28606;BME280;46498;49.968;7.754;2023-03-21T17:11:57;96845.00;;;8.79;100.00
28606;BME280;46498;49.968;7.754;2023-03-21T17:16:58;96842.00;;;8.90;100.00
28606;BME280;46498;49.968;7.754;2023-03-21T17:21:59;96844.00;;;8.93;100.00
28606;BME280;46498;49.968;7.754;2023-03-21T17:27:01;96844.00;;;8.80;100.00
28606;BME280;46498;49.968;7.754;2023-03-21T17:32:03;96851.00;;;8.74;100.00
28606;BME280;46498;49.968;7.754;2023-03-21T17:37:08;96841.00;;;8.61;100.00
28606;BME280;46498;49.968;7.754;2023-03-21T17:42:13;96853.00;;;8.58;100.00
28606;BME280;46498;49.968;7.754;2023-03-21T17:47:20;96852.00;;;8.52;100.00
28606;BME280;46498;49.968;7.754;2023-03-21T17:52:25;96850.00;;;8.51;100.00
28606;BME280;46498;49.968;7.754;2023-03-21T17:57:26;96858.00;;;8.57;100.00
28606;BME280;46498;49.968;7.754;2023-03-21T18:02:26;96865.00;;;8.55;100.00
28606;BME280;46498;49.968;7.754;2023-03-21T18:07:27;96860.00;;;8.59;100.00
28606;BME280;46498;49.968;7.754;2023-03-21T18:13:09;96854.00;;;8.48;100.00
28606;BME280;46498;49.968;7.754;2023-03-21T18:18:10;96855.00;;;8.49;100.00
28606;BME280;46498;49.968;7.754;2023-03-21T18:23:12;96856.00;;;8.43;100.00
28606;BME280;46498;49.968;7.754;2023-03-21T18:28:13;96862.00;;;8.38;100.00
28606;BME280;46498;49.968;7.754;2023-03-21T18:33:20;96869.00;;;8.30;100.00
28606;BME280;46498;49.968;7.754;2023-03-21T18:38:22;96863.00;;;8.26;100.00
28606;BME280;46498;49.968;7.754;2023-03-21T18:43:23;96874.00;;;8.14;100.00
28606;BME280;46498;49.968;7.754;2023-03-21T18:48:54;96874.00;;;8.03;100.00
28606;BME280;46498;49.968;7.754;2023-03-21T18:53:55;96877.00;;;7.93;100.00
28606;BME280;46498;49.968;7.754;2023-03-21T18:58:57;96871.00;;;7.86;100.00
28606;BME280;46498;49.968;7.754;2023-03-21T19:03:59;96870.00;;;7.80;100.00
28606;BME280;46498;49.968;7.754;2023-03-21T19:09:24;96861.00;;;7.79;100.00
28606;BME280;46498;49.968;7.754;2023-03-21T19:14:32;96865.00;;;7.92;100.00
28606;BME280;46498;49.968;7.754;2023-03-21T19:19:33;96874.00;;;7.81;100.00
28606;BME280;46498;49.968;7.754;2023-03-21T19:24:34;96876.00;;;7.61;100.00
28606;BME280;46498;49.968;7.754;2023-03-21T19:29:35;96868.00;;;7.52;100.00
28606;BME280;46498;49.968;7.754;2023-03-21T19:34:36;96866.00;;;7.43;100.00
28606;BME280;46498;49.968;7.754;2023-03-21T19:39:37;96877.00;;;7.29;100.00
28606;BME280;46498;49.968;7.754;2023-03-21T19:44:38;96872.00;;;7.24;100.00
28606;BME280;46498;49.968;7.754;2023-03-21T19:49:40;96872.00;;;7.12;100.00
28606;BME280;46498;49.968;7.754;2023-03-21T19:55:41;96879.00;;;7.08;100.00
28606;BME280;46498;49.968;7.754;2023-03-21T20:00:42;96882.00;;;6.88;100.00
28606;BME280;46498;49.968;7.754;2023-03-21T20:05:42;96874.00;;;6.80;100.00
28606;BME280;46498;49.968;7.754;2023-03-21T20:10:44;96874.00;;;6.67;100.00
28606;BME280;46498;49.968;7.754;2023-03-21T20:15:45;96876.00;;;6.55;100.00
28606;BME280;46498;49.968;7.754;2023-03-21T20:20:49;96877.00;;;6.50;100.00
28606;BME280;46498;49.968;7.754;2023-03-21T20:25:52;96872.00;;;6.52;100.00
28606;BME280;46498;49.968;7.754;2023-03-21T20:30:54;96869.00;;;6.51;100.00
28606;BME280;46498;49.968;7.754;2023-03-21T20:36:03;96874.00;;;6.50;100.00
28606;BME280;46498;49.968;7.754;2023-03-21T20:41:36;96884.00;;;6.51;100.00
28606;BME280;46498;49.968;7.754;2023-03-21T20:46:38;96875.00;;;6.48;100.00
28606;BME280;46498;49.968;7.754;2023-03-21T20:51:39;96865.00;;;6.48;100.00
28606;BME280;46498;49.968;7.754;2023-03-21T20:57:10;96870.00;;;6.40;100.00
28606;BME280;46498;49.968;7.754;2023-03-21T21:02:12;96873.00;;;6.35;100.00
28606;BME280;46498;49.968;7.754;2023-03-21T21:07:14;96876.00;;;6.36;100.00
28606;BME280;46498;49.968;7.754;2023-03-21T21:12:16;96880.00;;;6.38;100.00
28606;BME280;46498;49.968;7.754;2023-03-21T21:17:21;96876.00;;;6.37;100.00
28606;BME280;46498;49.968;7.754;2023-03-21T21:22:54;96868.00;;;6.34;100.00
28606;BME280;46498;49.968;7.754;2023-03-21T21:28:02;96874.00;;;6.64;100.00
28606;BME280;46498;49.968;7.754;2023-03-21T21:33:08;96878.00;;;6.55;100.00
28606;BME280;46498;49.968;7.754;2023-03-21T21:38:09;96875.00;;;6.46;100.00
28606;BME280;46498;49.968;7.754;2023-03-21T21:43:10;96866.00;;;6.50;100.00
28606;BME280;46498;49.968;7.754;2023-03-21T21:48:12;96868.00;;;6.60;100.00
28606;BME280;46498;49.968;7.754;2023-03-21T21:53:13;96867.00;;;6.61;100.00
28606;BME280;46498;49.968;7.754;2023-03-21T21:58:18;96859.00;;;6.42;100.00
28606;BME280;46498;49.968;7.754;2023-03-21T22:03:19;96847.00;;;6.35;100.00
28606;BME280;46498;49.968;7.754;2023-03-21T22:08:21;96850.00;;;6.26;100.00
28606;BME280;46498;49.968;7.754;2023-03-21T22:13:22;96842.00;;;6.14;100.00
28606;BME280;46498;49.968;7.754;2023-03-21T22:18:23;96839.00;;;6.13;100.00
28606;BME280;46498;49.968;7.754;2023-03-21T22:23:24;96843.00;;;6.07;100.00
28606;BME280;46498;49.968;7.754;2023-03-21T22:28:25;96836.00;;;5.88;100.00
28606;BME280;46498;49.968;7.754;2023-03-21T22:33:26;96833.00;;;5.98;100.00
28606;BME280;46498;49.968;7.754;2023-03-21T22:38:27;96836.00;;;5.89;100.00
28606;BME280;46498;49.968;7.754;2023-03-21T22:43:28;96839.00;;;5.84;100.00
28606;BME280;46498;49.968;7.754;2023-03-21T22:48:29;96830.00;;;5.75;100.00
28606;BME280;46498;49.968;7.754;2023-03-21T22:53:30;96839.00;;;5.84;100.00
28606;BME280;46498;49.968;7.754;2023-03-21T22:58:31;96831.00;;;5.81;100.00
28606;BME280;46498;49.968;7.754;2023-03-21T23:03:32;96824.00;;;5.87;100.00
28606;BME280;46498;49.968;7.754;2023-03-21T23:08:33;96825.00;;;5.82;100.00
28606;BME280;46498;49.968;7.754;2023-03-21T23:13:34;96830.00;;;5.89;100.00
28606;BME280;46498;49.968;7.754;2023-03-21T23:18:40;96819.00;;;5.96;100.00
28606;BME280;46498;49.968;7.754;2023-03-21T23:23:42;96828.00;;;6.05;100.00
28606;BME280;46498;49.968;7.754;2023-03-21T23:28:49;96820.00;;;6.01;100.00
28606;BME280;46498;49.968;7.754;2023-03-21T23:33:51;96824.00;;;6.04;100.00
28606;BME280;46498;49.968;7.754;2023-03-21T23:38:52;96823.00;;;6.14;100.00
28606;BME280;46498;49.968;7.754;2023-03-21T23:43:53;96816.00;;;6.11;100.00
28606;BME280;46498;49.968;7.754;2023-03-21T23:48:54;96810.00;;;6.06;100.00
28606;BME280;46498;49.968;7.754;2023-03-21T23:53:55;96820.00;;;6.10;100.00
28606;BME280;46498;49.968;7.754;2023-03-21T23:58:57;96812.00;;;6.12;100.00
